createdAt,value
2024-02-29T00:02:01.288Z,-1.78
2024-02-29T00:05:05.213Z,-1.38
2024-02-29T00:08:09.531Z,-1.55
2024-02-29T00:11:15.610Z,-1.73
2024-02-29T00:14:19.425Z,-2.12
2024-02-29T00:17:25.418Z,-2.00
2024-02-29T00:20:46.343Z,-2.05
2024-02-29T00:23:50.527Z,-2.26
2024-02-29T00:26:55.799Z,-2.46
2024-02-29T00:29:59.603Z,-1.95
2024-02-29T00:33:05.822Z,-2.05
2024-02-29T00:36:10.540Z,-1.87
2024-02-29T00:39:15.450Z,-2.36
2024-02-29T00:42:24.892Z,-2.11
2024-02-29T00:45:28.863Z,-1.85
2024-02-29T00:48:45.190Z,-2.26
2024-02-29T00:52:04.579Z,-2.47
2024-02-29T00:55:19.305Z,-2.18
2024-02-29T00:58:25.423Z,-2.41
2024-02-29T01:01:29.146Z,-2.09
2024-02-29T01:04:36.908Z,-2.63
2024-02-29T01:07:56.514Z,-2.28
2024-02-29T01:11:09.056Z,-2.19
2024-02-29T01:14:12.638Z,-2.16
2024-02-29T01:17:16.226Z,-2.41
2024-02-29T01:20:23.240Z,-2.42
2024-02-29T01:23:32.575Z,-2.16
2024-02-29T01:26:39.772Z,-2.51
2024-02-29T01:29:43.467Z,-2.80
2024-02-29T01:32:47.012Z,-2.47
2024-02-29T01:35:53.191Z,-2.39
2024-02-29T01:38:56.773Z,-2.43
2024-02-29T01:42:00.746Z,-2.49
2024-02-29T01:45:07.883Z,-2.55
2024-02-29T01:48:21.652Z,-2.21
2024-02-29T01:51:28.328Z,-2.85
2024-02-29T01:54:35.585Z,-2.55
2024-02-29T01:57:58.450Z,-2.28
2024-02-29T02:01:04.593Z,-2.69
2024-02-29T02:04:08.257Z,-2.61
2024-02-29T02:07:13.577Z,-2.87
2024-02-29T02:10:17.306Z,-2.39
2024-02-29T02:13:21.639Z,-2.75
2024-02-29T02:16:25.479Z,-2.43
2024-02-29T02:19:29.219Z,-2.32
2024-02-29T02:22:34.325Z,-2.50
2024-02-29T02:25:38.154Z,-2.71
2024-02-29T02:28:44.542Z,-2.56
2024-02-29T02:32:19.606Z,-1.99
2024-02-29T02:35:23.277Z,-2.59
2024-02-29T02:38:28.375Z,-2.12
2024-02-29T02:41:31.933Z,-1.95
2024-02-29T02:44:35.562Z,-2.31
2024-02-29T02:47:39.168Z,-1.78
2024-02-29T02:50:42.813Z,-2.63
2024-02-29T02:53:47.875Z,-2.43
2024-02-29T02:56:51.466Z,-2.63
2024-02-29T02:59:55.082Z,-2.26
2024-02-29T03:03:00.873Z,-2.47
2024-02-29T03:06:04.576Z,-2.61
2024-02-29T03:09:10.228Z,-2.59
2024-02-29T03:12:13.767Z,-2.72
2024-02-29T03:15:17.634Z,-2.25
2024-02-29T03:18:21.503Z,-2.37
2024-02-29T03:21:25.149Z,-2.09
2024-02-29T03:24:30.214Z,-2.19
2024-02-29T03:27:33.851Z,-2.39
2024-02-29T03:30:37.520Z,-2.52
2024-02-29T03:33:41.176Z,-2.64
2024-02-29T03:36:44.828Z,-2.35
2024-02-29T03:39:49.871Z,-2.13
2024-02-29T03:42:53.528Z,-2.42
2024-02-29T03:45:57.147Z,-2.52
2024-02-29T03:49:00.848Z,-2.41
2024-02-29T03:52:05.331Z,-2.61
2024-02-29T03:55:12.779Z,-2.35
2024-02-29T03:58:16.797Z,-2.61
2024-02-29T04:01:20.529Z,-2.63
2024-02-29T04:04:24.490Z,-2.66
2024-02-29T04:07:28.132Z,-2.31
2024-02-29T04:10:33.175Z,-2.70
2024-02-29T04:13:36.778Z,-2.15
2024-02-29T04:16:42.364Z,-1.99
2024-02-29T04:19:47.103Z,-2.36
2024-02-29T04:22:50.773Z,-2.17
2024-02-29T04:25:55.826Z,-2.53
2024-02-29T04:28:59.433Z,-2.11
2024-02-29T04:32:03.031Z,-2.01
2024-02-29T04:35:07.218Z,-2.52
2024-02-29T04:38:10.913Z,-2.44
2024-02-29T04:41:15.944Z,-2.21
2024-02-29T04:44:19.684Z,-1.88
2024-02-29T04:47:23.346Z,-1.74
2024-02-29T04:50:27.188Z,-1.49
2024-02-29T04:53:30.808Z,-1.52
2024-02-29T04:56:36.618Z,-1.66
2024-02-29T04:59:40.249Z,-1.81
2024-02-29T05:02:43.884Z,-1.02
2024-02-29T05:05:47.434Z,-1.75
2024-02-29T05:08:50.998Z,-1.32
2024-02-29T05:11:56.175Z,-1.14
2024-02-29T05:15:00.650Z,-1.36
2024-02-29T05:18:04.724Z,-1.43
2024-02-29T05:21:08.391Z,-1.48
2024-02-29T05:24:12.004Z,-1.55
2024-02-29T05:27:17.065Z,-1.51
2024-02-29T05:30:20.826Z,-1.83
2024-02-29T05:33:24.413Z,-1.04
2024-02-29T05:36:28.109Z,-0.92
2024-02-29T05:39:34.880Z,-1.00
2024-02-29T05:42:40.036Z,-0.60
2024-02-29T05:45:43.908Z,-0.87
2024-02-29T05:48:47.732Z,-0.94
2024-02-29T05:51:51.387Z,-0.41
2024-02-29T05:54:55.226Z,-0.51
2024-02-29T05:58:00.443Z,-0.67
2024-02-29T06:01:04.538Z,-0.71
2024-02-29T06:04:31.860Z,-0.33
2024-02-29T06:07:51.692Z,-0.31
2024-02-29T06:10:58.889Z,-0.22
2024-02-29T06:14:04.114Z,-0.60
2024-02-29T06:17:08.352Z,0.76
2024-02-29T06:20:13.464Z,0.44
2024-02-29T06:23:17.071Z,0.05
2024-02-29T06:26:20.676Z,0.55
2024-02-29T06:29:25.673Z,0.48
2024-02-29T06:32:29.358Z,0.50
2024-02-29T06:35:32.982Z,-0.14
2024-02-29T06:38:36.575Z,0.35
2024-02-29T06:41:44.907Z,0.62
2024-02-29T06:44:49.615Z,0.85
2024-02-29T06:47:53.195Z,1.11
2024-02-29T06:50:56.749Z,0.98
2024-02-29T06:54:00.391Z,0.85
2024-02-29T06:57:05.483Z,0.73
2024-02-29T07:00:12.821Z,0.98
2024-02-29T07:03:16.499Z,0.99
2024-02-29T07:06:22.401Z,0.73
2024-02-29T07:09:26.010Z,0.78
2024-02-29T07:12:29.570Z,1.05
2024-02-29T07:15:35.325Z,1.03
2024-02-29T07:18:39.161Z,0.88
2024-02-29T07:21:43.663Z,1.09
2024-02-29T07:24:47.261Z,1.26
2024-02-29T07:27:51.297Z,1.76
2024-02-29T07:30:56.456Z,2.23
2024-02-29T07:34:00.352Z,2.12
2024-02-29T07:37:04.180Z,2.03
2024-02-29T07:40:09.144Z,2.18
2024-02-29T07:43:12.838Z,1.97
2024-02-29T07:46:18.500Z,2.96
2024-02-29T07:49:22.988Z,2.26
2024-02-29T07:52:26.655Z,2.35
2024-02-29T07:55:30.314Z,3.03
2024-02-29T07:58:34.022Z,2.28
2024-02-29T08:01:40.105Z,2.71
2024-02-29T08:04:44.108Z,3.19
2024-02-29T08:07:48.355Z,2.44
2024-02-29T08:10:52.014Z,2.74
2024-02-29T08:13:56.683Z,3.55
2024-02-29T08:17:01.854Z,4.12
2024-02-29T08:20:07.091Z,3.73
2024-02-29T08:23:12.613Z,3.14
2024-02-29T08:26:16.295Z,3.06
2024-02-29T08:29:19.907Z,3.35
2024-02-29T08:32:24.957Z,2.99
2024-02-29T08:35:28.613Z,3.51
2024-02-29T08:38:32.325Z,3.18
2024-02-29T08:41:36.091Z,3.58
2024-02-29T08:44:44.148Z,3.61
2024-02-29T08:47:49.534Z,3.45
2024-02-29T08:50:53.212Z,4.20
2024-02-29T08:53:56.810Z,3.47
2024-02-29T08:57:00.562Z,3.05
2024-02-29T09:00:04.819Z,4.31
2024-02-29T09:03:10.326Z,3.15
2024-02-29T09:06:15.187Z,3.35
2024-02-29T09:09:18.932Z,4.48
2024-02-29T09:12:24.270Z,3.93
2024-02-29T09:15:28.013Z,3.36
2024-02-29T09:18:33.196Z,4.51
2024-02-29T09:24:40.724Z,4.76
2024-02-29T09:27:44.595Z,5.22
2024-02-29T09:30:48.413Z,4.06
2024-02-29T09:33:54.959Z,5.47
2024-02-29T09:36:58.743Z,5.09
2024-02-29T09:40:05.153Z,5.71
2024-02-29T09:43:09.331Z,5.64
2024-02-29T09:46:13.077Z,6.01
2024-02-29T09:49:18.394Z,6.19
2024-02-29T09:52:23.727Z,5.55
2024-02-29T09:55:29.209Z,4.45
2024-02-29T09:58:35.717Z,5.11
2024-02-29T10:01:39.575Z,4.79
2024-02-29T10:04:45.052Z,5.27
2024-02-29T10:07:50.096Z,4.56
2024-02-29T10:10:55.600Z,4.24
2024-02-29T10:14:03.052Z,4.74
2024-02-29T10:17:06.718Z,4.78
2024-02-29T10:20:13.908Z,4.85
2024-02-29T10:23:17.906Z,5.21
2024-02-29T10:26:21.463Z,5.17
2024-02-29T10:29:26.892Z,4.97
2024-02-29T10:32:31.264Z,5.10
2024-02-29T10:35:36.957Z,5.29
2024-02-29T10:38:42.961Z,4.88
2024-02-29T10:41:51.689Z,5.69
2024-02-29T10:44:57.871Z,5.80
2024-02-29T10:48:08.679Z,5.88
2024-02-29T10:51:27.153Z,5.35
2024-02-29T10:54:38.971Z,5.68
2024-02-29T10:57:47.143Z,5.57
2024-02-29T11:00:51.333Z,5.69
2024-02-29T11:03:57.459Z,5.43
2024-02-29T11:07:05.080Z,5.39
2024-02-29T11:10:10.939Z,4.82
2024-02-29T11:13:20.082Z,4.55
2024-02-29T11:16:23.920Z,4.68
2024-02-29T11:19:28.737Z,4.82
2024-02-29T11:22:37.703Z,4.93
2024-02-29T11:25:43.969Z,5.01
2024-02-29T11:28:51.430Z,4.79
2024-02-29T11:31:57.757Z,5.23
2024-02-29T11:35:02.094Z,4.43
2024-02-29T11:38:10.151Z,5.18
2024-02-29T11:41:18.063Z,5.97
2024-02-29T11:44:22.007Z,6.47
2024-02-29T11:47:25.661Z,5.92
2024-02-29T11:50:29.287Z,5.45
2024-02-29T11:53:34.670Z,5.81
2024-02-29T11:56:38.600Z,4.93
2024-02-29T11:59:42.190Z,4.95
2024-02-29T12:02:46.895Z,5.98
2024-02-29T12:05:50.927Z,6.01
2024-02-29T12:08:56.960Z,5.74
2024-02-29T12:12:01.537Z,6.18
2024-02-29T12:15:06.421Z,5.78
2024-02-29T12:18:11.697Z,5.38
2024-02-29T12:21:16.156Z,5.55
2024-02-29T12:24:21.220Z,5.64
2024-02-29T12:27:27.879Z,5.89
2024-02-29T12:30:34.669Z,5.73
2024-02-29T12:33:39.497Z,6.43
2024-02-29T12:36:47.705Z,6.30
2024-02-29T12:40:01.942Z,6.19
2024-02-29T12:43:07.332Z,6.11
2024-02-29T12:46:11.071Z,6.23
2024-02-29T12:49:14.774Z,5.42
2024-02-29T12:52:19.396Z,6.33
2024-02-29T12:55:25.186Z,5.79
2024-02-29T12:58:28.975Z,6.36
2024-02-29T13:01:33.051Z,6.45
2024-02-29T13:04:39.070Z,6.40
2024-02-29T13:07:43.308Z,6.61
2024-02-29T13:10:48.439Z,6.62
2024-02-29T13:13:52.175Z,6.03
2024-02-29T13:17:37.876Z,5.93
2024-02-29T13:20:42.011Z,6.16
2024-02-29T13:23:57.763Z,5.87
2024-02-29T13:27:03.165Z,6.07
2024-02-29T13:30:08.578Z,5.95
2024-02-29T13:33:12.251Z,6.40
2024-02-29T13:36:17.130Z,6.36
2024-02-29T13:39:20.856Z,6.50
2024-02-29T13:42:26.002Z,5.97
2024-02-29T13:45:38.083Z,4.88
2024-02-29T13:48:44.824Z,5.72
2024-02-29T13:51:49.110Z,5.90
2024-02-29T13:54:52.771Z,5.99
2024-02-29T13:57:58.191Z,6.00
2024-02-29T14:01:02.004Z,5.73
2024-02-29T14:04:06.573Z,5.57
2024-02-29T14:07:10.368Z,5.83
2024-02-29T14:10:14.142Z,5.27
2024-02-29T14:13:19.287Z,5.39
2024-02-29T14:16:23.253Z,5.39
2024-02-29T14:19:27.119Z,4.69
2024-02-29T14:22:31.221Z,4.98
2024-02-29T14:25:35.042Z,4.93
2024-02-29T14:28:40.180Z,4.90
2024-02-29T14:31:43.758Z,4.76
2024-02-29T14:34:47.384Z,4.56
2024-02-29T14:37:51.076Z,4.67
2024-02-29T14:40:54.673Z,4.69
2024-02-29T14:44:04.340Z,4.73
2024-02-29T14:47:08.481Z,4.88
2024-02-29T14:50:12.230Z,4.73
2024-02-29T14:53:15.902Z,4.27
2024-02-29T14:56:19.723Z,4.26
2024-02-29T14:59:24.783Z,4.20
2024-02-29T15:02:28.623Z,4.18
2024-02-29T15:05:32.440Z,4.10
2024-02-29T15:08:37.840Z,4.19
2024-02-29T15:11:41.785Z,3.93
2024-02-29T15:14:46.865Z,4.27
2024-02-29T15:17:50.581Z,3.63
2024-02-29T15:20:54.346Z,3.64
2024-02-29T15:24:05.555Z,3.61
2024-02-29T15:27:10.530Z,3.70
2024-02-29T15:30:15.941Z,3.55
2024-02-29T15:33:20.789Z,3.38
2024-02-29T15:36:24.878Z,3.70
2024-02-29T15:39:28.565Z,3.00
2024-02-29T15:42:32.237Z,3.29
2024-02-29T15:45:37.274Z,3.35
2024-02-29T15:48:41.076Z,3.50
2024-02-29T15:51:44.879Z,3.55
2024-02-29T15:54:48.543Z,3.12
2024-02-29T15:57:52.706Z,3.05
2024-02-29T16:00:58.073Z,3.41
2024-02-29T16:04:01.932Z,3.23
2024-02-29T16:07:06.074Z,3.32
2024-02-29T16:10:10.855Z,2.87
2024-02-29T16:13:14.803Z,3.21
2024-02-29T16:16:20.237Z,3.30
2024-02-29T16:19:25.246Z,3.09
2024-02-29T16:22:29.093Z,3.20
2024-02-29T16:25:33.025Z,3.17
2024-02-29T16:28:37.065Z,3.25
2024-02-29T16:31:42.156Z,3.07
2024-02-29T16:34:46.094Z,3.16
2024-02-29T16:37:49.775Z,3.11
2024-02-29T16:40:55.971Z,3.19
2024-02-29T16:44:00.426Z,3.13
2024-02-29T16:47:06.442Z,3.24
2024-02-29T16:50:13.928Z,2.57
2024-02-29T16:53:17.669Z,2.94
2024-02-29T16:56:24.130Z,2.61
2024-02-29T16:59:27.780Z,2.47
2024-02-29T17:02:34.160Z,2.37
2024-02-29T17:05:37.932Z,2.57
2024-02-29T17:08:41.580Z,2.91
2024-02-29T17:11:45.709Z,2.34
2024-02-29T17:14:49.445Z,2.88
2024-02-29T17:17:54.737Z,2.92
2024-02-29T17:21:00.876Z,3.14
2024-02-29T17:24:04.788Z,3.38
2024-02-29T17:27:10.847Z,3.34
2024-02-29T17:30:17.019Z,2.98
2024-02-29T17:33:22.279Z,2.93
2024-02-29T17:36:26.147Z,2.80
2024-02-29T17:39:31.196Z,2.88
2024-02-29T17:42:37.602Z,2.72
2024-02-29T17:45:42.097Z,2.81
2024-02-29T17:48:54.806Z,2.85
2024-02-29T17:51:59.017Z,2.63
2024-02-29T17:55:03.682Z,3.00
2024-02-29T17:58:25.476Z,2.76
2024-02-29T18:01:52.215Z,2.90
2024-02-29T18:05:48.005Z,2.82
2024-02-29T18:08:51.817Z,2.67
2024-02-29T18:12:03.304Z,2.65
2024-02-29T18:15:08.012Z,2.50
2024-02-29T18:18:13.892Z,2.15
2024-02-29T18:21:22.182Z,2.35
2024-02-29T18:24:25.910Z,2.62
2024-02-29T18:27:29.933Z,2.51
2024-02-29T18:30:33.787Z,2.13
2024-02-29T18:33:37.850Z,2.07
2024-02-29T18:36:43.091Z,2.06
2024-02-29T18:39:46.921Z,2.05
2024-02-29T18:42:50.790Z,2.06
2024-02-29T18:46:03.137Z,2.37
2024-02-29T18:49:11.164Z,2.02
2024-02-29T18:52:16.512Z,1.97
2024-02-29T18:55:20.364Z,2.28
2024-02-29T18:58:24.224Z,2.46
2024-02-29T19:01:28.258Z,2.50
2024-02-29T19:04:32.233Z,1.74
2024-02-29T19:07:37.745Z,1.72
2024-02-29T19:10:42.274Z,1.68
2024-02-29T19:13:46.007Z,1.85
2024-02-29T19:16:50.207Z,1.73
2024-02-29T19:19:57.812Z,1.75
2024-02-29T19:23:03.049Z,1.57
2024-02-29T19:26:06.940Z,1.48
2024-02-29T19:29:10.720Z,1.77
2024-02-29T19:32:18.097Z,1.98
2024-02-29T19:35:21.832Z,2.35
2024-02-29T19:38:29.641Z,2.28
2024-02-29T19:41:33.325Z,2.25
2024-02-29T19:44:37.357Z,2.04
2024-02-29T19:47:41.151Z,2.09
2024-02-29T19:50:45.082Z,2.00
2024-02-29T19:53:50.219Z,1.63
2024-02-29T19:56:58.446Z,1.82
2024-02-29T20:00:02.753Z,2.07
2024-02-29T20:03:15.848Z,1.76
2024-02-29T20:06:19.555Z,2.05
2024-02-29T20:09:25.860Z,1.82
2024-02-29T20:12:29.728Z,1.68
2024-02-29T20:15:33.516Z,1.75
2024-02-29T20:18:37.165Z,2.07
2024-02-29T20:21:40.859Z,1.98
2024-02-29T20:24:46.268Z,1.82
2024-02-29T20:27:53.816Z,1.76
2024-02-29T20:30:57.698Z,1.48
2024-02-29T20:34:01.433Z,1.34
2024-02-29T20:37:05.347Z,1.20
2024-02-29T20:40:11.577Z,1.62
2024-02-29T20:43:15.332Z,1.49
2024-02-29T20:46:33.499Z,1.43
2024-02-29T20:49:37.331Z,1.21
2024-02-29T20:52:41.045Z,1.68
2024-02-29T20:55:46.296Z,1.67
2024-02-29T20:58:49.906Z,1.66
2024-02-29T21:01:53.636Z,1.79
2024-02-29T21:04:59.314Z,1.60
2024-02-29T21:08:03.073Z,1.40
2024-02-29T21:11:08.298Z,1.31
2024-02-29T21:14:13.043Z,1.32
2024-02-29T21:17:16.964Z,1.19
2024-02-29T21:20:20.528Z,1.41
2024-02-29T21:23:24.324Z,1.43
2024-02-29T21:26:29.418Z,1.40
2024-02-29T21:29:33.253Z,1.31
2024-02-29T21:32:37.251Z,1.35
2024-02-29T21:35:40.873Z,1.26
2024-02-29T21:38:46.130Z,1.02
2024-02-29T21:41:51.148Z,0.84
2024-02-29T21:44:54.749Z,0.89
2024-02-29T21:47:58.399Z,0.91
2024-02-29T21:51:01.970Z,0.79
2024-02-29T21:54:06.255Z,0.73
2024-02-29T21:57:15.310Z,0.54
2024-02-29T22:00:31.851Z,0.62
2024-02-29T22:03:35.412Z,0.43
2024-02-29T22:06:38.979Z,0.59
2024-02-29T22:09:42.686Z,0.43
2024-02-29T22:12:47.790Z,0.34
2024-02-29T22:15:51.438Z,0.38
2024-02-29T22:18:55.060Z,0.47
2024-02-29T22:21:59.562Z,0.35
2024-02-29T22:25:04.293Z,0.44
2024-02-29T22:28:09.738Z,0.10
2024-02-29T22:31:13.420Z,0.11
2024-02-29T22:34:17.253Z,0.13
2024-02-29T22:37:20.904Z,-0.17
2024-02-29T22:40:24.542Z,0.32
2024-02-29T22:43:29.573Z,0.31
2024-02-29T22:46:35.872Z,0.19
2024-02-29T22:49:39.582Z,0.39
2024-02-29T22:52:43.110Z,0.78
2024-02-29T22:55:50.579Z,0.88
2024-02-29T22:58:55.820Z,0.80
2024-02-29T23:01:59.786Z,0.98
2024-02-29T23:05:04.273Z,0.83
2024-02-29T23:08:11.067Z,0.67
2024-02-29T23:11:14.636Z,1.10
2024-02-29T23:14:19.823Z,0.40
2024-02-29T23:17:23.471Z,0.79
2024-02-29T23:20:27.129Z,0.68
2024-02-29T23:23:30.698Z,0.79
2024-02-29T23:26:34.559Z,0.62
2024-02-29T23:29:40.143Z,0.48
2024-02-29T23:32:44.009Z,0.74
2024-02-29T23:35:47.841Z,0.74
2024-02-29T23:38:51.482Z,0.64
2024-02-29T23:41:55.139Z,0.58
2024-02-29T23:45:00.165Z,0.84
2024-02-29T23:48:03.946Z,0.82
2024-02-29T23:51:07.751Z,0.53
2024-02-29T23:54:11.529Z,0.35
2024-02-29T23:57:15.209Z,0.36
